Time;durP1;ratioP1;P1;durP2;ratioP2;P2;SDS_P1;SDS_P2;PMS_P1;PMS_P2;Temp;Humidity;BMP_temperature;BMP_pressure;BME280_temperature;BME280_humidity;BME280_pressure;Samples;Min_cycle;Max_cycle;Signal;HPM_P1;HPM_P2
2022/01/05 10:22:31;;;;;;;0.20;0.20;;;;;;;;;;5056654;27;20978;-70
2022/01/05 10:24:58;;;;;;;0.10;0.10;;;;;;;;;;5057448;28;20281;-71
2022/01/05 10:27:26;;;;;;;0.87;0.40;;;;;;;;;;5056843;28;20829;-71
2022/01/05 10:29:55;;;;;;;1.20;0.60;;;;;;;;;;5055260;28;20584;-70
2022/01/05 10:32:23;;;;;;;0.33;0.27;;;;;;;;;;5055248;28;20294;-72
2022/01/05 10:35:04;;;;;;;0.00;0.00;;;;;;;;;;5056844;28;20203;-71
2022/01/05 10:37:33;;;;;;;1.43;0.77;;;;;;;;;;5055022;28;20225;-71
2022/01/05 10:40:11;;;;;;;0.30;0.20;;;;;;;;;;5056533;28;20659;-72
2022/01/05 10:42:39;;;;;;;0.00;0.00;;;;;;;;;;5055139;28;20222;-71
2022/01/05 10:45:08;;;;;;;1.10;0.43;;;;;;;;;;5054712;28;20297;-72
2022/01/05 10:47:37;;;;;;;0.20;0.20;;;;;;;;;;5055121;28;20203;-71
2022/01/05 10:50:04;;;;;;;3.53;0.47;;;;;;;;;;5057160;28;20194;-71
2022/01/05 10:52:34;;;;;;;0.23;0.23;;;;;;;;;;5054685;28;20214;-73
2022/01/05 10:55:10;;;;;;;0.20;0.20;;;;;;;;;;5056899;28;20199;-71
2022/01/05 10:57:37;;;;;;;10.20;1.60;;;;;;;;;;5054930;28;20206;-72
2022/01/05 11:00:06;;;;;;;4.03;0.90;;;;;;;;;;5054463;28;20680;-73
2022/01/05 11:02:34;;;;;;;0.10;0.10;;;;;;;;;;5065735;28;20203;-73
2022/01/05 11:05:13;;;;;;;0.10;0.10;;;;;;;;;;5056977;28;20588;-73
2022/01/05 11:07:46;;;;;;;3.00;0.10;;;;;;;;;;5059517;28;20744;-73
2022/01/05 11:10:15;;;;;;;0.27;0.20;;;;;;;;;;5062172;28;20495;-72
2022/01/05 11:12:44;;;;;;;0.00;0.00;;;;;;;;;;5074351;28;20513;-72
2022/01/05 11:15:24;;;;;;;0.07;0.07;;;;;;;;;;5059870;28;20230;-71
2022/01/05 11:18:11;;;;;;;1.37;0.30;;;;;;;;;;5057067;28;20628;-71
2022/01/05 11:20:42;;;;;;;0.20;0.20;;;;;;;;;;5057722;28;20321;-72
2022/01/05 11:23:11;;;;;;;0.50;0.20;;;;;;;;;;5057752;28;20291;-73
2022/01/05 11:25:39;;;;;;;2.20;0.77;;;;;;;;;;5059230;28;20221;-71
2022/01/05 11:28:08;;;;;;;0.10;0.10;;;;;;;;;;5057947;28;20231;-72
2022/01/05 11:30:36;;;;;;;0.13;0.00;;;;;;;;;;5059720;28;20324;-71
2022/01/05 11:33:04;;;;;;;0.00;0.00;;;;;;;;;;5051036;28;20199;-73
2022/01/05 11:35:32;;;;;;;0.97;0.57;;;;;;;;;;5047327;28;20607;-71
2022/01/05 11:38:00;;;;;;;3.00;0.50;;;;;;;;;;5046558;28;20203;-71
2022/01/05 11:40:30;;;;;;;0.43;0.10;;;;;;;;;;5045834;28;20751;-72
2022/01/05 11:43:00;;;;;;;0.70;0.67;;;;;;;;;;5046355;28;20207;-72
2022/01/05 11:45:32;;;;;;;0.23;0.20;;;;;;;;;;5046281;28;20200;-73
2022/01/05 11:48:12;;;;;;;0.20;0.20;;;;;;;;;;5046501;28;20222;-72
2022/01/05 11:50:44;;;;;;;0.90;0.70;;;;;;;;;;5046666;28;20230;-72
2022/01/05 11:53:11;;;;;;;0.73;0.70;;;;;;;;;;5042103;28;20196;-72
2022/01/05 11:55:55;;;;;;;0.10;0.10;;;;;;;;;;5048760;28;20212;-71
2022/01/05 11:58:26;;;;;;;0.47;0.40;;;;;;;;;;5049910;28;20277;-71
2022/01/05 12:01:08;;;;;;;0.20;0.20;;;;;;;;;;5046376;28;20211;-72
2022/01/05 12:03:48;;;;;;;0.00;0.00;;;;;;;;;;5046123;28;20210;-71
2022/01/05 12:06:15;;;;;;;0.37;0.37;;;;;;;;;;5047941;28;20210;-72
2022/01/05 12:08:43;;;;;;;0.63;0.63;;;;;;;;;;5047058;28;20192;-71
2022/01/05 12:11:25;;;;;;;0.33;0.33;;;;;;;;;;5047042;28;20238;-71
2022/01/05 12:13:54;;;;;;;0.37;0.37;;;;;;;;;;5046141;28;21037;-72
2022/01/05 12:16:22;;;;;;;5.27;0.30;;;;;;;;;;5046126;28;20231;-71
2022/01/05 12:19:04;;;;;;;2.00;1.27;;;;;;;;;;5043966;28;20239;-72
2022/01/05 12:21:47;;;;;;;0.53;0.50;;;;;;;;;;5044122;28;20232;-72
2022/01/05 12:24:16;;;;;;;0.13;0.13;;;;;;;;;;5046236;28;20208;-73
2022/01/05 12:26:44;;;;;;;2.57;0.40;;;;;;;;;;5040443;28;20279;-70
2022/01/05 12:29:13;;;;;;;0.93;0.47;;;;;;;;;;5038023;28;20235;-69
2022/01/05 12:31:56;;;;;;;0.67;0.40;;;;;;;;;;5034001;28;20230;-66
2022/01/05 12:34:42;;;;;;;1.37;1.10;;;;;;;;;;5038032;28;20257;-69
2022/01/05 12:37:24;;;;;;;0.10;0.10;;;;;;;;;;5035598;28;20202;-73
2022/01/05 12:39:53;;;;;;;1.70;0.63;;;;;;;;;;5032688;28;20211;-70
2022/01/05 12:42:24;;;;;;;0.00;0.00;;;;;;;;;;5037589;28;20215;-71
2022/01/05 12:44:53;;;;;;;1.10;0.67;;;;;;;;;;5038263;28;20200;-70
2022/01/05 12:47:36;;;;;;;0.60;0.60;;;;;;;;;;5037605;28;20219;-70
2022/01/05 12:50:21;;;;;;;1.80;0.30;;;;;;;;;;5035329;28;20220;-71
2022/01/05 12:52:48;;;;;;;1.23;0.53;;;;;;;;;;5036015;28;20838;-70
2022/01/05 12:55:18;;;;;;;2.30;0.73;;;;;;;;;;5040044;28;20673;-71
2022/01/05 12:57:54;;;;;;;0.87;0.83;;;;;;;;;;5036920;28;20676;-72
2022/01/05 13:00:22;;;;;;;6.80;0.50;;;;;;;;;;5038127;28;20210;-71
2022/01/05 13:02:50;;;;;;;1.17;0.17;;;;;;;;;;5035713;28;20200;-71
2022/01/05 13:05:30;;;;;;;0.10;0.10;;;;;;;;;;5038382;28;20216;-70
2022/01/05 13:07:58;;;;;;;0.10;0.10;;;;;;;;;;5036141;28;20207;-71
2022/01/05 13:10:28;;;;;;;1.90;0.63;;;;;;;;;;5036863;28;20200;-72
2022/01/05 13:12:56;;;;;;;0.20;0.20;;;;;;;;;;5035476;28;20220;-70
2022/01/05 13:15:25;;;;;;;0.00;0.00;;;;;;;;;;5035890;28;20200;-70
2022/01/05 13:17:56;;;;;;;2.10;0.43;;;;;;;;;;5038380;28;20246;-70
2022/01/05 13:20:23;;;;;;;0.27;0.23;;;;;;;;;;5032887;28;20258;-70
2022/01/05 13:22:52;;;;;;;0.07;0.07;;;;;;;;;;5036180;28;20212;-70
2022/01/05 13:25:23;;;;;;;1.40;0.40;;;;;;;;;;5036248;28;20195;-70
2022/01/05 13:27:51;;;;;;;0.00;0.00;;;;;;;;;;5035017;28;20677;-70
2022/01/05 13:30:19;;;;;;;1.23;1.03;;;;;;;;;;5038553;28;20192;-71
2022/01/05 13:32:49;;;;;;;0.30;0.30;;;;;;;;;;5037612;28;20230;-70
2022/01/05 13:35:19;;;;;;;3.73;1.37;;;;;;;;;;5035212;28;20200;-69
2022/01/05 13:37:47;;;;;;;0.27;0.27;;;;;;;;;;5036208;28;20207;-69
2022/01/05 13:40:16;;;;;;;2.63;0.77;;;;;;;;;;5035946;28;22256;-71
2022/01/05 13:42:45;;;;;;;0.30;0.30;;;;;;;;;;5035585;28;20222;-71
2022/01/05 13:45:13;;;;;;;0.83;0.10;;;;;;;;;;5035145;28;20208;-71
2022/01/05 13:47:41;;;;;;;2.00;1.10;;;;;;;;;;5037059;28;20206;-73
2022/01/05 13:50:12;;;;;;;0.10;0.10;;;;;;;;;;5033545;28;20612;-70
2022/01/05 13:52:40;;;;;;;2.40;0.50;;;;;;;;;;5034706;28;20246;-70
2022/01/05 13:55:09;;;;;;;0.00;0.00;;;;;;;;;;5035679;28;20273;-70
2022/01/05 13:57:37;;;;;;;0.00;0.00;;;;;;;;;;5039414;28;20195;-70
2022/01/05 14:00:08;;;;;;;3.70;0.50;;;;;;;;;;5037145;28;20293;-70
2022/01/05 14:02:36;;;;;;;1.70;1.00;;;;;;;;;;5033429;28;20294;-71
2022/01/05 14:05:04;;;;;;;0.23;0.23;;;;;;;;;;5035022;28;20199;-71
2022/01/05 14:07:34;;;;;;;0.03;0.03;;;;;;;;;;5032620;28;20199;-70
2022/01/05 14:10:09;;;;;;;0.57;0.47;;;;;;;;;;5035229;28;20191;-70
2022/01/05 14:12:38;;;;;;;0.53;0.30;;;;;;;;;;5034530;28;20215;-71
2022/01/05 14:15:07;;;;;;;0.20;0.20;;;;;;;;;;5037257;28;20211;-70
2022/01/05 14:17:35;;;;;;;0.10;0.10;;;;;;;;;;5036566;28;20199;-70
2022/01/05 14:20:17;;;;;;;0.00;0.00;;;;;;;;;;5029823;28;20199;-70
2022/01/05 14:22:46;;;;;;;0.83;0.10;;;;;;;;;;5038514;28;20292;-71
2022/01/05 14:25:13;;;;;;;0.00;0.00;;;;;;;;;;5038978;28;20215;-72
2022/01/05 14:27:42;;;;;;;1.23;0.63;;;;;;;;;;5037570;28;20210;-70
2022/01/05 14:30:11;;;;;;;0.30;0.20;;;;;;;;;;5035414;28;20285;-71
2022/01/05 14:32:40;;;;;;;0.50;0.50;;;;;;;;;;5034732;28;20219;-72
2022/01/05 14:35:14;;;;;;;0.10;0.10;;;;;;;;;;5036428;28;20229;-74
2022/01/05 14:38:02;;;;;;;0.20;0.20;;;;;;;;;;5037836;28;20208;-76
2022/01/05 14:40:30;;;;;;;0.63;0.10;;;;;;;;;;5038495;28;21128;-73
2022/01/05 14:42:59;;;;;;;0.30;0.00;;;;;;;;;;5042941;28;20239;-72
2022/01/05 14:45:28;;;;;;;0.13;0.13;;;;;;;;;;5042638;28;20206;-70
2022/01/05 14:47:56;;;;;;;0.00;0.00;;;;;;;;;;5041952;28;20310;-69
2022/01/05 14:50:23;;;;;;;0.10;0.10;;;;;;;;;;5044263;28;20208;-69
2022/01/05 14:52:51;;;;;;;0.20;0.20;;;;;;;;;;5040011;28;20669;-71
2022/01/05 14:55:20;;;;;;;0.20;0.20;;;;;;;;;;5040972;28;20219;-71
2022/01/05 14:57:48;;;;;;;0.07;0.07;;;;;;;;;;5036073;28;20653;-74
2022/01/05 15:00:16;;;;;;;2.83;0.20;;;;;;;;;;5042563;28;20203;-69
2022/01/05 15:02:43;;;;;;;0.00;0.00;;;;;;;;;;5043524;28;20243;-71
2022/01/05 15:05:11;;;;;;;0.17;0.10;;;;;;;;;;5045424;28;20208;-71
2022/01/05 15:07:39;;;;;;;0.10;0.10;;;;;;;;;;5049032;28;20202;-70
2022/01/05 15:10:08;;;;;;;0.67;0.10;;;;;;;;;;5061973;28;22534;-70
2022/01/05 15:12:37;;;;;;;0.60;0.50;;;;;;;;;;5050734;28;20199;-71
2022/01/05 15:15:07;;;;;;;0.43;0.43;;;;;;;;;;5045608;28;20571;-71
2022/01/05 15:17:34;;;;;;;0.00;0.00;;;;;;;;;;5038782;28;20207;-72
2022/01/05 15:20:01;;;;;;;0.20;0.20;;;;;;;;;;5038800;28;20207;-72
2022/01/05 15:22:29;;;;;;;0.00;0.00;;;;;;;;;;5041262;28;20607;-81
2022/01/05 15:24:56;;;;;;;0.83;0.20;;;;;;;;;;5038115;28;20637;-71
2022/01/05 15:27:24;;;;;;;0.00;0.00;;;;;;;;;;5038320;28;20207;-68
2022/01/05 15:29:53;;;;;;;0.83;0.30;;;;;;;;;;5042432;28;20207;-74
2022/01/05 15:32:20;;;;;;;0.10;0.10;;;;;;;;;;5042044;28;20207;-72
2022/01/05 15:34:48;;;;;;;0.23;0.23;;;;;;;;;;5041677;28;21552;-72
2022/01/05 15:37:15;;;;;;;0.37;0.30;;;;;;;;;;5043493;28;20204;-71
2022/01/05 15:39:43;;;;;;;0.27;0.27;;;;;;;;;;5040351;28;20204;-70
2022/01/05 15:42:10;;;;;;;0.30;0.30;;;;;;;;;;5039913;28;20235;-72
2022/01/05 15:44:39;;;;;;;0.67;0.40;;;;;;;;;;5041275;28;20208;-72
2022/01/05 15:47:08;;;;;;;7.33;0.43;;;;;;;;;;5043154;28;20203;-73
2022/01/05 15:49:39;;;;;;;0.00;0.00;;;;;;;;;;5044551;28;20207;-74
2022/01/05 15:52:07;;;;;;;1.80;0.87;;;;;;;;;;5047555;28;20285;-76
2022/01/05 15:54:37;;;;;;;0.30;0.10;;;;;;;;;;5050411;28;20286;-72
2022/01/05 15:57:10;;;;;;;0.00;0.00;;;;;;;;;;5049443;28;20211;-71
2022/01/05 16:02:23;;;;;;;0.00;0.00;;;;;;;;;;5019299;28;20236;-72
2022/01/05 16:04:51;;;;;;;0.20;0.20;;;;;;;;;;5046631;28;21384;-71
2022/01/05 16:07:18;;;;;;;2.23;0.10;;;;;;;;;;5044638;28;20219;-71
2022/01/05 16:09:46;;;;;;;0.00;0.00;;;;;;;;;;5047136;28;20195;-71
2022/01/05 16:12:15;;;;;;;0.13;0.00;;;;;;;;;;5045586;28;20709;-72
2022/01/05 16:14:43;;;;;;;0.30;0.30;;;;;;;;;;5043238;28;20196;-72
2022/01/05 16:17:11;;;;;;;2.07;0.10;;;;;;;;;;5044715;28;20203;-73
2022/01/05 16:19:40;;;;;;;0.00;0.00;;;;;;;;;;5044358;28;20208;-72
2022/01/05 16:22:07;;;;;;;0.00;0.00;;;;;;;;;;5045774;28;20235;-72
2022/01/05 16:24:35;;;;;;;0.40;0.40;;;;;;;;;;5046640;28;20210;-73
2022/01/05 16:27:02;;;;;;;0.00;0.00;;;;;;;;;;5046035;28;20214;-72
2022/01/05 16:29:29;;;;;;;0.00;0.00;;;;;;;;;;5043760;28;20211;-71
2022/01/05 16:31:57;;;;;;;0.00;0.00;;;;;;;;;;5046213;28;20203;-73
2022/01/05 16:34:24;;;;;;;0.10;0.10;;;;;;;;;;5045954;28;20203;-76
2022/01/05 16:36:53;;;;;;;0.10;0.10;;;;;;;;;;5045303;28;20203;-70
2022/01/05 16:39:21;;;;;;;0.10;0.00;;;;;;;;;;5043768;28;20212;-75
2022/01/05 16:41:48;;;;;;;0.67;0.33;;;;;;;;;;5040065;28;20210;-75
2022/01/05 16:44:16;;;;;;;0.00;0.00;;;;;;;;;;5040030;28;20207;-76
2022/01/05 16:46:44;;;;;;;0.00;0.00;;;;;;;;;;5041221;28;20216;-74
2022/01/05 16:49:13;;;;;;;0.50;0.10;;;;;;;;;;5040697;28;20230;-75
2022/01/05 16:51:40;;;;;;;1.23;0.57;;;;;;;;;;5040132;28;20207;-73
2022/01/05 16:54:12;;;;;;;0.30;0.30;;;;;;;;;;5040535;28;20211;-70
2022/01/05 17:00:25;;;;;;;2.90;0.57;;;;;;;;;;5039891;28;20256;-76
2022/01/05 17:02:17;;;;;;;0.10;0.00;;;;;;;;;;5039391;28;20856;-72
2022/01/05 17:04:45;;;;;;;0.43;0.43;;;;;;;;;;5039104;28;20204;-73
2022/01/05 17:07:12;;;;;;;2.93;0.50;;;;;;;;;;5041016;28;20206;-72
2022/01/05 17:09:41;;;;;;;0.03;0.03;;;;;;;;;;5044543;28;20200;-74
2022/01/05 17:12:09;;;;;;;0.07;0.07;;;;;;;;;;5041860;28;20270;-70
2022/01/05 17:14:37;;;;;;;0.40;0.10;;;;;;;;;;5039968;28;20199;-73
2022/01/05 17:17:04;;;;;;;0.37;0.37;;;;;;;;;;5045136;28;20195;-74
2022/01/05 17:19:32;;;;;;;0.40;0.40;;;;;;;;;;5043637;28;20760;-74
2022/01/05 17:22:00;;;;;;;0.00;0.00;;;;;;;;;;5043655;28;20253;-73
2022/01/05 17:24:28;;;;;;;0.00;0.00;;;;;;;;;;5045056;28;20196;-73
2022/01/05 17:26:57;;;;;;;0.00;0.00;;;;;;;;;;5043580;28;20204;-73
2022/01/05 17:29:24;;;;;;;0.63;0.20;;;;;;;;;;5044986;28;20203;-73
2022/01/05 17:31:52;;;;;;;0.00;0.00;;;;;;;;;;5044211;28;20211;-73
2022/01/05 17:34:19;;;;;;;0.00;0.00;;;;;;;;;;5045770;28;20319;-72
2022/01/05 17:36:46;;;;;;;0.00;0.00;;;;;;;;;;5042344;28;20230;-72
2022/01/05 17:39:14;;;;;;;0.00;0.00;;;;;;;;;;5045112;28;20196;-73
2022/01/05 17:41:41;;;;;;;0.00;0.00;;;;;;;;;;5042881;28;20214;-73
2022/01/05 17:44:10;;;;;;;0.00;0.00;;;;;;;;;;5044920;28;20318;-73
2022/01/05 17:46:37;;;;;;;0.10;0.10;;;;;;;;;;5045274;28;20564;-73
2022/01/05 17:49:05;;;;;;;1.17;1.03;;;;;;;;;;5042592;28;20195;-73
2022/01/05 17:51:32;;;;;;;0.00;0.00;;;;;;;;;;5045850;28;20199;-73
2022/01/05 17:54:00;;;;;;;0.10;0.10;;;;;;;;;;5040372;28;20208;-73
2022/01/05 17:56:29;;;;;;;0.10;0.10;;;;;;;;;;5043099;28;20241;-73
2022/01/05 17:58:56;;;;;;;0.10;0.10;;;;;;;;;;5044685;28;20254;-73
2022/01/05 18:01:25;;;;;;;4.83;0.30;;;;;;;;;;5046009;28;20192;-74
2022/01/05 18:03:52;;;;;;;0.20;0.20;;;;;;;;;;5044906;28;20219;-72
2022/01/05 18:06:20;;;;;;;2.57;0.73;;;;;;;;;;5044143;28;20191;-73
2022/01/05 18:08:47;;;;;;;0.10;0.10;;;;;;;;;;5043421;28;20229;-74
2022/01/05 18:11:15;;;;;;;0.00;0.00;;;;;;;;;;5046181;28;20580;-74
2022/01/05 18:13:42;;;;;;;0.00;0.00;;;;;;;;;;5045113;28;20219;-72
2022/01/05 18:16:11;;;;;;;3.67;0.20;;;;;;;;;;5043867;28;20216;-74
2022/01/05 18:18:40;;;;;;;0.30;0.30;;;;;;;;;;5043367;28;20202;-73
2022/01/05 18:21:09;;;;;;;0.10;0.10;;;;;;;;;;5044281;28;20231;-74
2022/01/05 18:23:40;;;;;;;0.60;0.57;;;;;;;;;;5041416;28;20231;-72
2022/01/05 18:26:08;;;;;;;1.20;0.20;;;;;;;;;;5032992;28;20232;-74
2022/01/05 18:28:35;;;;;;;0.13;0.13;;;;;;;;;;5026212;28;20253;-73
2022/01/05 18:31:03;;;;;;;0.20;0.20;;;;;;;;;;5018309;28;20224;-72
2022/01/05 18:33:31;;;;;;;1.40;0.53;;;;;;;;;;5020496;28;20207;-72
2022/01/05 18:36:00;;;;;;;0.00;0.00;;;;;;;;;;5020389;28;20224;-72
2022/01/05 18:38:28;;;;;;;0.40;0.00;;;;;;;;;;5020638;28;20655;-73
2022/01/05 18:40:55;;;;;;;0.60;0.40;;;;;;;;;;5015894;28;20197;-72
2022/01/05 18:43:23;;;;;;;0.00;0.00;;;;;;;;;;5015672;28;20827;-73
2022/01/05 18:45:50;;;;;;;0.00;0.00;;;;;;;;;;5020603;28;20212;-72
2022/01/05 18:48:18;;;;;;;0.00;0.00;;;;;;;;;;5028628;28;20218;-73
2022/01/05 18:50:45;;;;;;;0.00;0.00;;;;;;;;;;5025730;28;20196;-72
2022/01/05 18:53:14;;;;;;;4.23;3.80;;;;;;;;;;5025478;28;20214;-74
2022/01/05 18:55:42;;;;;;;0.00;0.00;;;;;;;;;;5024944;28;20201;-73
2022/01/05 18:58:10;;;;;;;0.00;0.00;;;;;;;;;;5027159;28;20210;-73
2022/01/05 19:00:38;;;;;;;0.00;0.00;;;;;;;;;;5024305;28;20200;-73
2022/01/05 19:03:05;;;;;;;0.10;0.03;;;;;;;;;;5022505;28;20239;-72
2022/01/05 19:05:33;;;;;;;12.40;0.57;;;;;;;;;;5024451;28;20196;-73
2022/01/05 19:08:00;;;;;;;0.00;0.00;;;;;;;;;;5022983;28;20197;-72
2022/01/05 19:10:29;;;;;;;0.00;0.00;;;;;;;;;;5027513;28;20283;-71
2022/01/05 19:12:56;;;;;;;0.00;0.00;;;;;;;;;;5030659;28;20199;-72
2022/01/05 19:15:24;;;;;;;0.13;0.13;;;;;;;;;;5028407;28;20208;-72
2022/01/05 19:17:51;;;;;;;0.00;0.00;;;;;;;;;;5024449;28;20200;-73
2022/01/05 19:20:18;;;;;;;0.00;0.00;;;;;;;;;;5024151;28;20659;-73
2022/01/05 19:22:46;;;;;;;0.00;0.00;;;;;;;;;;5024540;28;20207;-73
2022/01/05 19:25:14;;;;;;;0.00;0.00;;;;;;;;;;5022890;28;20231;-73
2022/01/05 19:27:43;;;;;;;0.00;0.00;;;;;;;;;;5023224;28;20289;-74
2022/01/05 19:30:10;;;;;;;0.00;0.00;;;;;;;;;;5030108;28;20216;-75
2022/01/05 19:32:38;;;;;;;0.10;0.10;;;;;;;;;;5025439;28;20737;-75
2022/01/05 19:35:06;;;;;;;0.20;0.13;;;;;;;;;;5025448;28;20541;-74
2022/01/05 19:37:33;;;;;;;0.00;0.00;;;;;;;;;;5025054;28;20200;-74
2022/01/05 19:40:01;;;;;;;0.00;0.00;;;;;;;;;;5025577;28;20566;-75
2022/01/05 19:42:28;;;;;;;0.20;0.20;;;;;;;;;;5029004;28;20214;-73
2022/01/05 19:44:57;;;;;;;1.10;0.90;;;;;;;;;;5026072;28;20251;-73
2022/01/05 19:47:24;;;;;;;0.00;0.00;;;;;;;;;;5021906;28;20227;-73
2022/01/05 19:49:55;;;;;;;0.00;0.00;;;;;;;;;;5026940;28;20204;-74
2022/01/05 19:52:33;;;;;;;0.00;0.00;;;;;;;;;;5028157;28;20290;-76
2022/01/05 19:55:05;;;;;;;0.53;0.27;;;;;;;;;;5022951;28;20204;-74
2022/01/05 19:57:33;;;;;;;0.00;0.00;;;;;;;;;;5025467;28;20669;-74
2022/01/05 20:00:02;;;;;;;0.00;0.00;;;;;;;;;;5024559;28;20205;-73
2022/01/05 20:02:29;;;;;;;0.00;0.00;;;;;;;;;;5029049;28;20207;-73
2022/01/05 20:04:57;;;;;;;0.00;0.00;;;;;;;;;;5025368;28;20323;-74
2022/01/05 20:07:24;;;;;;;0.00;0.00;;;;;;;;;;5031024;28;20199;-73
2022/01/05 20:09:52;;;;;;;0.90;0.53;;;;;;;;;;5022472;28;20219;-73
2022/01/05 20:12:19;;;;;;;2.13;0.97;;;;;;;;;;5029844;28;20734;-74
2022/01/05 20:14:48;;;;;;;0.10;0.10;;;;;;;;;;5028440;28;20193;-74
2022/01/05 20:17:18;;;;;;;0.00;0.00;;;;;;;;;;5016520;28;20220;-77
2022/01/05 20:19:46;;;;;;;0.10;0.10;;;;;;;;;;5018252;28;20282;-74
2022/01/05 20:22:13;;;;;;;0.00;0.00;;;;;;;;;;5019256;28;20229;-74
2022/01/05 20:24:41;;;;;;;0.00;0.00;;;;;;;;;;5026997;28;20585;-73
2022/01/05 20:27:08;;;;;;;0.07;0.07;;;;;;;;;;5029890;28;20204;-75
2022/01/05 20:29:36;;;;;;;0.00;0.00;;;;;;;;;;5028303;28;20196;-74
2022/01/05 20:32:03;;;;;;;0.00;0.00;;;;;;;;;;5027760;28;20201;-73
2022/01/05 20:34:32;;;;;;;0.00;0.00;;;;;;;;;;5024581;28;20247;-75
2022/01/05 20:37:00;;;;;;;0.00;0.00;;;;;;;;;;5025814;28;20204;-74
2022/01/05 20:39:27;;;;;;;0.00;0.00;;;;;;;;;;5022743;28;20214;-76
2022/01/05 20:41:54;;;;;;;0.00;0.00;;;;;;;;;;5027065;28;20219;-76
2022/01/05 20:44:22;;;;;;;0.00;0.00;;;;;;;;;;5025210;28;20227;-74
2022/01/05 20:46:49;;;;;;;0.00;0.00;;;;;;;;;;5026676;28;20573;-74
2022/01/05 20:49:17;;;;;;;0.00;0.00;;;;;;;;;;5025006;28;20210;-75
2022/01/05 20:51:46;;;;;;;0.00;0.00;;;;;;;;;;5022027;28;20233;-74
2022/01/05 20:54:14;;;;;;;0.00;0.00;;;;;;;;;;5022874;28;20243;-76
2022/01/05 20:56:41;;;;;;;0.00;0.00;;;;;;;;;;5021247;28;20567;-75
2022/01/05 20:59:09;;;;;;;0.00;0.00;;;;;;;;;;5030151;28;20562;-74
2022/01/05 21:01:36;;;;;;;0.00;0.00;;;;;;;;;;5026163;28;20204;-74
2022/01/05 21:04:03;;;;;;;0.00;0.00;;;;;;;;;;5017530;28;20236;-75
2022/01/05 21:06:31;;;;;;;0.00;0.00;;;;;;;;;;5022631;28;20205;-75
2022/01/05 21:09:00;;;;;;;0.00;0.00;;;;;;;;;;5026583;28;20197;-74
2022/01/05 21:11:27;;;;;;;0.00;0.00;;;;;;;;;;5027297;28;20207;-74
2022/01/05 21:13:54;;;;;;;0.00;0.00;;;;;;;;;;5020910;28;20666;-74
2022/01/05 21:16:22;;;;;;;0.57;0.57;;;;;;;;;;5027928;28;20203;-74
2022/01/05 21:18:52;;;;;;;0.10;0.00;;;;;;;;;;5019676;28;20197;-74
2022/01/05 21:21:20;;;;;;;0.00;0.00;;;;;;;;;;5028438;28;20233;-74
2022/01/05 21:23:48;;;;;;;0.00;0.00;;;;;;;;;;5025395;28;20227;-74
2022/01/05 21:26:17;;;;;;;3.40;0.47;;;;;;;;;;5028607;28;20218;-75
2022/01/05 21:28:44;;;;;;;4.93;0.30;;;;;;;;;;5022132;28;20207;-75
2022/01/05 21:31:11;;;;;;;0.00;0.00;;;;;;;;;;5023907;28;20220;-73
2022/01/05 21:33:39;;;;;;;0.03;0.03;;;;;;;;;;5022880;28;20211;-76
2022/01/05 21:36:06;;;;;;;0.00;0.00;;;;;;;;;;5023565;28;20208;-76
2022/01/05 21:38:34;;;;;;;0.00;0.00;;;;;;;;;;5018521;28;20204;-75
2022/01/05 21:41:02;;;;;;;0.00;0.00;;;;;;;;;;5017577;28;20575;-74
2022/01/05 21:43:31;;;;;;;0.00;0.00;;;;;;;;;;5019918;28;20204;-75
2022/01/05 21:45:58;;;;;;;0.00;0.00;;;;;;;;;;5022910;28;20673;-74
2022/01/05 21:48:26;;;;;;;0.00;0.00;;;;;;;;;;5022404;28;20206;-75
2022/01/05 21:50:53;;;;;;;0.00;0.00;;;;;;;;;;5022275;28;20208;-74
2022/01/05 21:53:21;;;;;;;0.00;0.00;;;;;;;;;;5025855;28;20672;-76
2022/01/05 21:55:48;;;;;;;0.00;0.00;;;;;;;;;;5015496;28;20711;-75
2022/01/05 21:58:15;;;;;;;0.00;0.00;;;;;;;;;;5013896;28;20207;-76
2022/01/05 22:00:47;;;;;;;0.00;0.00;;;;;;;;;;5017654;28;20708;-75
2022/01/05 22:03:14;;;;;;;0.00;0.00;;;;;;;;;;5021848;28;20208;-74
2022/01/05 22:05:42;;;;;;;0.00;0.00;;;;;;;;;;5021783;28;20282;-74
2022/01/05 22:08:09;;;;;;;0.00;0.00;;;;;;;;;;5025228;28;20292;-74
2022/01/05 22:10:38;;;;;;;0.00;0.00;;;;;;;;;;5024261;28;20222;-74
2022/01/05 22:13:05;;;;;;;0.00;0.00;;;;;;;;;;5018382;28;20578;-74
2022/01/05 22:15:33;;;;;;;0.00;0.00;;;;;;;;;;5021490;28;20207;-74
2022/01/05 22:18:02;;;;;;;0.00;0.00;;;;;;;;;;5017982;28;20197;-74
2022/01/05 22:20:30;;;;;;;0.00;0.00;;;;;;;;;;5023378;28;20224;-73
2022/01/05 22:22:57;;;;;;;0.00;0.00;;;;;;;;;;5020105;28;20215;-74
2022/01/05 22:25:25;;;;;;;0.00;0.00;;;;;;;;;;5018788;28;20220;-74
2022/01/05 22:27:52;;;;;;;0.00;0.00;;;;;;;;;;5018885;28;20214;-74
2022/01/05 22:30:19;;;;;;;0.00;0.00;;;;;;;;;;5026464;28;20204;-74
2022/01/05 22:32:47;;;;;;;0.00;0.00;;;;;;;;;;5018655;28;20597;-76
2022/01/05 22:35:15;;;;;;;0.00;0.00;;;;;;;;;;5021125;28;20682;-75
2022/01/05 22:37:44;;;;;;;0.00;0.00;;;;;;;;;;5014464;28;20216;-75
2022/01/05 22:40:12;;;;;;;0.00;0.00;;;;;;;;;;5018685;28;20205;-75
2022/01/05 22:42:40;;;;;;;0.00;0.00;;;;;;;;;;5013153;28;20215;-74
2022/01/05 22:45:07;;;;;;;0.00;0.00;;;;;;;;;;5012414;28;20238;-74
2022/01/05 22:47:35;;;;;;;0.00;0.00;;;;;;;;;;5026685;28;20196;-73
2022/01/05 22:50:02;;;;;;;0.00;0.00;;;;;;;;;;5021930;28;20200;-73
2022/01/05 22:52:31;;;;;;;0.00;0.00;;;;;;;;;;5015495;28;20201;-74
2022/01/05 22:54:59;;;;;;;0.00;0.00;;;;;;;;;;5013251;28;20216;-74
2022/01/05 22:57:26;;;;;;;0.00;0.00;;;;;;;;;;5014433;28;20216;-73
2022/01/05 22:59:54;;;;;;;0.20;0.20;;;;;;;;;;5012029;28;20209;-74
2022/01/05 23:02:21;;;;;;;0.30;0.30;;;;;;;;;;5016711;28;20213;-74
2022/01/05 23:04:49;;;;;;;0.00;0.00;;;;;;;;;;5014973;28;20228;-74
2022/01/05 23:07:16;;;;;;;0.20;0.20;;;;;;;;;;5017060;28;20204;-73
2022/01/05 23:09:45;;;;;;;0.00;0.00;;;;;;;;;;5018262;28;20211;-73
2022/01/05 23:12:13;;;;;;;0.00;0.00;;;;;;;;;;5019430;28;20204;-74
2022/01/05 23:14:41;;;;;;;0.00;0.00;;;;;;;;;;5013975;28;20204;-73
2022/01/05 23:17:08;;;;;;;0.00;0.00;;;;;;;;;;5012491;28;20205;-74
2022/01/05 23:19:36;;;;;;;0.00;0.00;;;;;;;;;;5013471;28;20208;-73
2022/01/05 23:22:04;;;;;;;0.00;0.00;;;;;;;;;;5011889;28;20673;-73
2022/01/05 23:24:31;;;;;;;0.00;0.00;;;;;;;;;;5012659;28;20232;-74
2022/01/05 23:27:00;;;;;;;0.00;0.00;;;;;;;;;;5013570;28;20208;-73
2022/01/05 23:29:27;;;;;;;0.00;0.00;;;;;;;;;;5014861;28;20201;-74
2022/01/05 23:31:55;;;;;;;0.00;0.00;;;;;;;;;;5015888;28;20213;-74
2022/01/05 23:34:22;;;;;;;0.00;0.00;;;;;;;;;;5017029;28;20573;-73
2022/01/05 23:36:50;;;;;;;0.00;0.00;;;;;;;;;;5015389;28;20227;-73
2022/01/05 23:39:19;;;;;;;0.00;0.00;;;;;;;;;;5013939;28;20258;-71
2022/01/05 23:41:46;;;;;;;0.00;0.00;;;;;;;;;;5022170;28;20204;-74
2022/01/05 23:44:17;;;;;;;0.00;0.00;;;;;;;;;;5027418;28;20213;-73
2022/01/05 23:46:45;;;;;;;0.63;0.63;;;;;;;;;;5024915;28;20310;-73
2022/01/05 23:49:16;;;;;;;0.00;0.00;;;;;;;;;;5028937;28;20205;-73
2022/01/05 23:51:43;;;;;;;0.10;0.10;;;;;;;;;;5017993;28;20211;-73
2022/01/05 23:54:10;;;;;;;0.00;0.00;;;;;;;;;;5015401;28;20217;-73
2022/01/05 23:56:39;;;;;;;0.00;0.00;;;;;;;;;;5016568;28;20274;-73
2022/01/05 23:59:06;;;;;;;0.10;0.10;;;;;;;;;;5015473;28;20212;-74
